Time;durP1;ratioP1;P1;durP2;ratioP2;P2;SDS_P1;SDS_P2;PMS_P1;PMS_P2;Temp;Humidity;BMP_temperature;BMP_pressure;BME280_temperature;BME280_humidity;BME280_pressure;Samples;Min_cycle;Max_cycle;Signal;HPM_P1;HPM_P2
2022/11/12 00:00:42;;;;;;;2.10;1.52;;;19.50;71.50;;;;;;4992844;27;45454;-71
2022/11/12 00:03:23;;;;;;;2.85;1.23;;;19.50;71.40;;;;;;4981178;27;45365;-71
2022/11/12 00:06:01;;;;;;;2.65;1.35;;;19.50;71.30;;;;;;4976494;27;46288;-71
2022/11/12 00:08:29;;;;;;;2.25;1.40;;;19.60;72.00;;;;;;4999196;27;45465;-71
2022/11/12 00:11:08;;;;;;;3.53;1.65;;;19.60;72.20;;;;;;5016600;27;45292;-71
2022/11/12 00:13:35;;;;;;;3.38;1.77;;;19.60;72.10;;;;;;4974731;27;45325;-71
2022/11/12 00:16:13;;;;;;;2.28;1.40;;;19.60;72.10;;;;;;4971900;27;45581;-71
2022/11/12 00:18:51;;;;;;;2.17;1.35;;;19.60;72.30;;;;;;4987784;27;45272;-71
2022/11/12 00:21:27;;;;;;;2.67;1.75;;;19.60;72.20;;;;;;4996764;27;45264;-71
2022/11/12 00:24:05;;;;;;;4.05;1.80;;;19.60;72.20;;;;;;4990102;27;45292;-71
2022/11/12 00:26:36;;;;;;;2.47;1.60;;;19.60;72.30;;;;;;4974808;27;45817;-71
2022/11/12 00:29:13;;;;;;;2.63;1.60;;;19.60;72.10;;;;;;4993296;27;45516;-71
2022/11/12 00:32:47;;;;;;;4.00;1.88;;;19.60;72.20;;;;;;4977187;27;45531;-71
2022/11/12 00:35:20;;;;;;;2.10;1.45;;;19.60;72.00;;;;;;4976312;27;45574;-71
2022/11/12 00:38:08;;;;;;;2.50;1.55;;;19.60;71.90;;;;;;5000209;27;47440;-71
2022/11/12 00:40:36;;;;;;;2.58;1.73;;;19.50;71.90;;;;;;4973551;27;45497;-71
2022/11/12 00:43:12;;;;;;;1.88;1.50;;;19.60;71.70;;;;;;4982612;27;45500;-72
2022/11/12 00:45:42;;;;;;;1.80;1.58;;;19.60;71.50;;;;;;4995501;27;45450;-72
2022/11/12 00:48:19;;;;;;;2.35;1.48;;;19.50;71.30;;;;;;4978895;27;46615;-71
2022/11/12 00:53:56;;;;;;;1.48;1.30;;;19.50;71.10;;;;;;4976999;27;45725;-71
2022/11/12 00:56:25;;;;;;;2.28;1.38;;;19.50;71.10;;;;;;5010053;27;45215;-71
2022/11/12 00:58:53;;;;;;;2.78;1.30;;;19.50;71.00;;;;;;5010549;27;47541;-71
2022/11/12 01:01:34;;;;;;;2.72;1.50;;;19.50;71.10;;;;;;5002546;27;45418;-71
2022/11/12 01:04:11;;;;;;;1.75;1.35;;;19.50;71.30;;;;;;5006289;27;45428;-71
2022/11/12 01:06:54;;;;;;;1.77;1.00;;;19.50;71.60;;;;;;5006186;27;45636;-71
2022/11/12 01:09:56;;;;;;;3.53;1.63;;;19.50;71.70;;;;;;5011985;27;47543;-71
2022/11/12 01:12:26;;;;;;;2.58;1.67;;;19.60;71.80;;;;;;5007049;27;45419;-71
2022/11/12 01:15:03;;;;;;;2.75;1.48;;;19.50;71.70;;;;;;4993848;27;45278;-71
2022/11/12 01:17:35;;;;;;;1.75;1.27;;;19.60;71.90;;;;;;4994929;27;45649;-71
2022/11/12 01:20:08;;;;;;;1.70;1.30;;;19.60;71.90;;;;;;4992616;27;45339;-72
2022/11/12 01:22:37;;;;;;;2.55;1.63;;;19.60;71.70;;;;;;5001293;27;45451;-71
2022/11/12 01:25:20;;;;;;;1.88;1.17;;;19.60;71.60;;;;;;5001322;27;45359;-71
2022/11/12 01:28:15;;;;;;;1.77;1.23;;;19.60;71.80;;;;;;4992053;27;45397;-71
2022/11/12 01:30:42;;;;;;;2.88;1.75;;;19.60;71.50;;;;;;4982737;27;47379;-71
2022/11/12 01:33:31;;;;;;;2.38;1.40;;;19.50;71.40;;;;;;5003344;27;45204;-71
2022/11/12 01:36:00;;;;;;;1.73;1.20;;;19.50;71.10;;;;;;4972984;27;45544;-71
2022/11/12 01:38:44;;;;;;;1.70;1.30;;;19.50;70.90;;;;;;4967727;27;45574;-71
2022/11/12 01:41:25;;;;;;;2.78;1.40;;;19.50;70.90;;;;;;5000705;27;47656;-71
2022/11/12 02:02:40;;;;;;;2.90;1.93;;;19.50;71.20;;;;;;5807457;22;9538017;-70
2022/11/12 02:05:34;;;;;;;1.30;1.10;;;19.50;71.20;;;;;;5949769;23;45450;-70
2022/11/12 02:08:06;;;;;;;1.67;1.23;;;19.50;71.20;;;;;;5964563;23;45278;-70
2022/11/12 02:10:34;;;;;;;2.08;1.40;;;19.50;71.10;;;;;;5955264;23;46240;-69
2022/11/12 02:16:35;;;;;;;1.15;1.00;;;19.50;71.30;;;;;;5948277;23;45483;-70
2022/11/12 02:19:14;;;;;;;1.77;1.58;;;19.50;71.20;;;;;;5947411;23;45651;-70
2022/11/12 02:21:50;;;;;;;2.20;1.48;;;19.50;71.10;;;;;;5970726;23;46498;-70
2022/11/12 02:24:43;;;;;;;2.10;1.35;;;19.50;71.00;;;;;;5941101;23;45422;-70
2022/11/12 02:30:49;;;;;;;2.15;1.38;;;19.50;70.70;;;;;;5927891;23;45796;-70
2022/11/12 02:33:17;;;;;;;1.98;1.40;;;19.50;70.40;;;;;;5955670;23;47585;-70
2022/11/12 02:35:44;;;;;;;1.90;1.20;;;19.50;71.40;;;;;;5954132;23;45323;-70
2022/11/12 02:38:12;;;;;;;3.00;1.50;;;19.50;70.30;;;;;;5959085;23;45554;-70
2022/11/12 02:40:46;;;;;;;3.90;1.45;;;19.50;70.10;;;;;;5969847;23;45421;-70
2022/11/12 02:43:14;;;;;;;1.42;1.15;;;19.50;70.10;;;;;;5967179;23;46490;-70
2022/11/12 02:45:41;;;;;;;1.80;1.30;;;19.50;70.00;;;;;;5939275;23;45596;-70
2022/11/12 02:48:18;;;;;;;1.73;1.60;;;19.50;69.90;;;;;;5973286;23;45380;-70
2022/11/12 02:50:54;;;;;;;1.85;1.30;;;19.50;69.80;;;;;;5960540;23;45529;-70
2022/11/12 02:53:36;;;;;;;2.35;1.50;;;19.50;70.20;;;;;;5952595;23;47522;-70
2022/11/12 02:56:03;;;;;;;1.70;1.25;;;19.50;70.50;;;;;;5955197;23;45572;-70
2022/11/12 02:58:40;;;;;;;1.90;1.58;;;19.50;70.50;;;;;;5941216;23;45297;-70
2022/11/12 03:01:20;;;;;;;3.80;1.60;;;19.50;70.30;;;;;;5941345;23;45216;-70
2022/11/12 03:03:49;;;;;;;2.78;1.50;;;19.50;70.30;;;;;;5953886;23;47524;-70
2022/11/12 03:06:29;;;;;;;3.03;1.45;;;19.50;70.60;;;;;;5951512;23;45299;-70
2022/11/12 03:09:16;;;;;;;2.22;1.35;;;19.50;70.60;;;;;;5965979;23;45178;-70
2022/11/12 03:11:54;;;;;;;2.58;1.42;;;19.50;70.60;;;;;;5947871;23;45264;-70
2022/11/12 03:14:20;;;;;;;1.73;1.20;;;19.50;70.60;;;;;;5938402;23;47539;-70
2022/11/12 03:17:08;;;;;;;2.30;1.70;;;19.50;70.40;;;;;;5976356;23;45330;-70
2022/11/12 03:19:36;;;;;;;1.65;1.42;;;19.50;70.30;;;;;;5939600;23;45351;-70
2022/11/12 03:22:04;;;;;;;2.30;1.60;;;19.50;70.10;;;;;;5937528;23;45559;-69
2022/11/12 03:24:33;;;;;;;2.90;1.42;;;19.50;69.90;;;;;;5949980;23;47119;-70
2022/11/12 03:27:18;;;;;;;3.28;1.33;;;19.50;69.90;;;;;;5953091;23;45387;-70
2022/11/12 03:29:45;;;;;;;2.53;1.20;;;19.50;69.70;;;;;;5963878;23;45475;-70
2022/11/12 03:32:11;;;;;;;2.00;1.45;;;19.50;69.50;;;;;;5946140;23;45494;-70
2022/11/12 03:34:50;;;;;;;1.85;1.40;;;19.50;69.40;;;;;;5950382;23;46452;-70
2022/11/12 03:37:17;;;;;;;2.10;1.30;;;19.50;69.20;;;;;;5951279;23;45405;-70
2022/11/12 03:39:57;;;;;;;3.67;1.55;;;19.50;69.20;;;;;;5953399;23;45154;-70
2022/11/12 03:42:23;;;;;;;2.35;1.27;;;19.50;69.10;;;;;;5954943;23;45428;-70
2022/11/12 03:45:07;;;;;;;1.80;1.30;;;19.50;69.10;;;;;;5944464;23;46512;-70
2022/11/12 03:47:34;;;;;;;1.77;1.20;;;19.50;69.40;;;;;;5940111;23;45590;-70
2022/11/12 03:50:11;;;;;;;1.73;1.30;;;19.50;69.70;;;;;;5941917;23;45315;-70
2022/11/12 03:53:20;;;;;;;2.03;1.38;;;19.50;69.80;;;;;;5947167;23;45443;-70
2022/11/12 03:56:42;;;;;;;2.10;1.38;;;19.50;69.70;;;;;;5949393;23;47128;-70
2022/11/12 03:59:10;;;;;;;2.50;1.42;;;19.50;69.90;;;;;;5952996;23;45459;-70
2022/11/12 04:01:49;;;;;;;1.30;1.13;;;19.50;69.90;;;;;;5949939;23;45423;-70
2022/11/12 04:08:34;;;;;;;2.03;1.40;;;19.50;69.90;;;;;;5962872;23;45599;-70
2022/11/12 04:10:36;;;;;;;5.07;1.70;;;19.50;70.10;;;;;;5952765;23;45247;-70
2022/11/12 04:13:29;;;;;;;2.22;1.38;;;19.50;69.90;;;;;;5961555;23;45283;-70
2022/11/12 04:22:12;;;;;;;2.30;1.30;;;19.50;69.50;;;;;;5880392;23;45238;-70
2022/11/12 04:27:41;;;;;;;2.47;1.40;;;19.40;68.80;;;;;;5934175;23;45276;-70
2022/11/12 04:30:24;;;;;;;2.38;1.42;;;19.40;68.50;;;;;;5945621;23;46461;-70
2022/11/12 04:32:55;;;;;;;2.30;1.40;;;19.40;68.20;;;;;;5953263;23;45511;-70
2022/11/12 04:38:23;;;;;;;1.73;1.50;;;19.30;67.40;;;;;;5933197;23;45350;-70
2022/11/12 04:49:45;;;;;;;1.63;1.38;;;19.40;68.00;;;;;;5955310;23;45403;-70
2022/11/12 04:52:36;;;;;;;2.13;1.70;;;19.40;68.00;;;;;;5975635;23;47516;-70
2022/11/12 04:55:04;;;;;;;2.53;1.38;;;19.40;68.20;;;;;;5965484;23;45418;-70
2022/11/12 04:57:44;;;;;;;2.08;1.40;;;19.40;68.20;;;;;;5959381;23;45330;-70
2022/11/12 05:00:25;;;;;;;1.75;1.25;;;19.40;68.30;;;;;;5952989;23;45379;-70
2022/11/12 05:02:52;;;;;;;2.72;1.63;;;19.40;68.30;;;;;;5954686;23;47511;-70
2022/11/12 05:05:28;;;;;;;1.77;1.30;;;19.50;68.50;;;;;;5971819;23;45312;-70
2022/11/12 05:08:25;;;;;;;1.90;1.30;;;19.50;68.50;;;;;;5980645;23;45436;-70
2022/11/12 05:11:24;;;;;;;2.08;1.52;;;19.50;68.30;;;;;;5963109;23;45408;-70
2022/11/12 05:14:19;;;;;;;2.58;1.45;;;19.50;68.30;;;;;;5950048;23;46285;-70
2022/11/12 05:16:46;;;;;;;2.70;1.48;;;19.50;68.00;;;;;;5963262;23;45319;-70
2022/11/12 05:19:22;;;;;;;1.77;1.20;;;19.50;68.40;;;;;;5959843;23;45294;-70
2022/11/12 05:22:05;;;;;;;1.65;1.20;;;19.40;68.20;;;;;;5963705;23;45358;-70
2022/11/12 05:25:02;;;;;;;2.63;1.30;;;19.40;68.40;;;;;;5945715;23;46617;-70
2022/11/12 05:27:41;;;;;;;2.03;1.50;;;19.40;68.50;;;;;;5950107;23;45385;-70
2022/11/12 05:30:24;;;;;;;1.70;1.35;;;19.50;68.30;;;;;;5967048;23;45373;-70
2022/11/12 05:33:06;;;;;;;4.00;1.70;;;19.40;68.30;;;;;;5944950;23;45380;-70
2022/11/12 05:35:42;;;;;;;1.77;1.33;;;19.40;68.20;;;;;;5968346;23;46282;-70
2022/11/12 05:38:11;;;;;;;2.22;1.58;;;19.40;68.50;;;;;;5946589;23;45256;-70
2022/11/12 05:40:39;;;;;;;1.95;1.40;;;19.40;68.60;;;;;;5948322;23;45399;-70
2022/11/12 05:43:20;;;;;;;1.48;1.10;;;19.50;68.70;;;;;;5953769;23;45188;-70
2022/11/12 05:46:02;;;;;;;1.75;1.30;;;19.50;68.90;;;;;;5933868;23;46710;-70
2022/11/12 05:48:42;;;;;;;1.50;1.30;;;19.50;69.00;;;;;;5954264;23;45265;-70
2022/11/12 05:51:09;;;;;;;2.10;1.20;;;19.50;68.90;;;;;;5954527;23;45417;-70
2022/11/12 05:53:37;;;;;;;1.67;1.25;;;19.50;69.10;;;;;;5952546;23;45258;-70
2022/11/12 05:58:55;;;;;;;1.48;1.23;;;19.50;68.90;;;;;;5953931;23;45627;-70
2022/11/12 06:01:32;;;;;;;2.22;1.30;;;19.50;69.00;;;;;;5969328;23;45414;-70
2022/11/12 06:04:12;;;;;;;3.92;1.38;;;19.50;69.10;;;;;;5962103;23;45453;-70
2022/11/12 06:06:48;;;;;;;2.38;1.40;;;19.50;68.70;;;;;;5947484;23;45990;-71
2022/11/12 06:09:24;;;;;;;2.15;1.42;;;19.50;68.70;;;;;;5957425;23;45315;-70
2022/11/12 06:12:07;;;;;;;2.03;1.20;;;19.50;68.60;;;;;;5963005;23;45513;-70
2022/11/12 06:14:37;;;;;;;1.60;1.23;;;19.50;68.60;;;;;;5944492;23;45395;-70
2022/11/12 06:17:23;;;;;;;1.75;1.10;;;19.50;68.70;;;;;;5951166;23;46325;-70
2022/11/12 06:20:00;;;;;;;2.33;1.23;;;19.50;68.50;;;;;;5946830;23;45479;-70
2022/11/12 06:22:39;;;;;;;1.67;1.20;;;19.50;68.50;;;;;;5970212;23;45447;-70
2022/11/12 06:25:12;;;;;;;2.10;1.23;;;19.50;68.30;;;;;;5949503;23;45227;-70
2022/11/12 06:27:50;;;;;;;1.38;1.00;;;19.50;68.40;;;;;;5966460;23;46620;-70
2022/11/12 06:30:26;;;;;;;1.63;1.30;;;19.40;68.20;;;;;;5967385;23;45391;-70
2022/11/12 06:32:53;;;;;;;2.33;1.40;;;19.40;68.60;;;;;;5953864;23;45310;-70
2022/11/12 06:36:01;;;;;;;1.85;1.30;;;19.40;68.80;;;;;;5950357;23;45647;-69
2022/11/12 06:38:48;;;;;;;2.33;1.33;;;19.40;68.90;;;;;;5962264;23;48283;-70
2022/11/12 06:41:31;;;;;;;2.60;1.38;;;19.40;69.20;;;;;;5944201;23;45275;-70
2022/11/12 06:44:00;;;;;;;1.75;1.15;;;19.50;69.40;;;;;;5964674;23;45395;-70
2022/11/12 06:47:18;;;;;;;1.60;1.40;;;19.40;69.30;;;;;;5960287;23;45243;-70
2022/11/12 06:49:45;;;;;;;2.28;1.40;;;19.40;69.30;;;;;;5942450;23;45536;-70
2022/11/12 06:52:14;;;;;;;1.80;1.48;;;19.40;69.60;;;;;;5959755;23;45325;-70
2022/11/12 06:54:51;;;;;;;2.33;1.40;;;19.50;69.60;;;;;;5956638;23;45384;-70
2022/11/12 06:57:33;;;;;;;2.55;1.30;;;19.40;69.40;;;;;;5950954;23;45384;-70
2022/11/12 07:00:01;;;;;;;1.90;1.33;;;19.40;69.30;;;;;;5944162;23;46351;-69
2022/11/12 07:02:28;;;;;;;2.03;1.50;;;19.40;68.90;;;;;;5942303;23;45401;-69
2022/11/12 07:05:25;;;;;;;1.92;1.40;;;19.40;68.90;;;;;;5954879;23;45575;-69
2022/11/12 07:08:15;;;;;;;2.38;1.40;;;19.40;68.70;;;;;;5942063;23;45477;-70
2022/11/12 07:10:42;;;;;;;2.03;1.60;;;19.40;68.70;;;;;;5946989;23;47597;-70
2022/11/12 07:13:14;;;;;;;2.13;1.30;;;19.40;68.60;;;;;;5933720;23;45512;-69
2022/11/12 07:15:43;;;;;;;1.50;1.25;;;19.40;68.50;;;;;;5944087;23;45415;-70
2022/11/12 07:18:27;;;;;;;1.80;1.20;;;19.40;68.60;;;;;;5959526;23;45214;-69
2022/11/12 07:21:11;;;;;;;2.08;1.20;;;19.40;68.40;;;;;;5950445;23;47212;-70
2022/11/12 07:23:43;;;;;;;1.50;1.30;;;19.40;68.50;;;;;;5941010;23;45350;-69
2022/11/12 07:26:34;;;;;;;1.85;1.30;;;19.40;68.50;;;;;;5954668;23;45214;-69
2022/11/12 07:29:06;;;;;;;1.98;1.20;;;19.40;68.80;;;;;;5936542;23;45462;-69
2022/11/12 07:31:50;;;;;;;2.60;1.50;;;19.40;69.00;;;;;;5952293;23;47040;-70
2022/11/12 07:34:17;;;;;;;2.38;1.10;;;19.40;68.90;;;;;;5954690;23;45421;-70
2022/11/12 07:36:44;;;;;;;2.42;1.40;;;19.40;68.80;;;;;;5947563;23;45509;-70
2022/11/12 07:39:23;;;;;;;1.88;1.25;;;19.40;69.00;;;;;;5962301;23;45555;-70
2022/11/12 07:42:12;;;;;;;2.30;1.23;;;19.40;68.80;;;;;;5944595;23;46698;-70
2022/11/12 07:44:54;;;;;;;1.38;1.02;;;19.40;68.90;;;;;;5951170;23;45258;-70
2022/11/12 07:47:38;;;;;;;1.80;1.08;;;19.40;68.90;;;;;;5932556;23;45411;-70
2022/11/12 07:50:07;;;;;;;1.73;1.25;;;19.40;68.60;;;;;;5937414;23;45640;-70
2022/11/12 07:52:44;;;;;;;1.17;1.00;;;19.40;68.70;;;;;;5949661;23;46454;-70
2022/11/12 07:55:12;;;;;;;1.90;1.23;;;19.40;68.50;;;;;;5951810;23;45355;-70
2022/11/12 07:57:38;;;;;;;1.65;1.20;;;19.40;68.50;;;;;;5945314;23;45505;-70
2022/11/12 08:00:09;;;;;;;1.67;1.17;;;19.40;68.80;;;;;;5966671;23;45359;-70
2022/11/12 08:02:54;;;;;;;1.35;0.88;;;19.40;68.90;;;;;;5945823;23;46385;-70
2022/11/12 08:05:20;;;;;;;1.85;1.33;;;19.40;69.10;;;;;;5988946;23;45292;-70
2022/11/12 08:07:47;;;;;;;1.52;1.10;;;19.40;69.00;;;;;;6121830;23;45316;-69
2022/11/12 08:10:14;;;;;;;1.65;1.30;;;19.30;69.00;;;;;;6122531;23;45296;-70
2022/11/12 08:12:41;;;;;;;1.00;0.90;;;19.30;69.10;;;;;;6122074;23;45437;-69
2022/11/12 08:15:09;;;;;;;1.20;1.10;;;19.30;69.00;;;;;;6120596;23;45230;-70
2022/11/12 08:17:38;;;;;;;2.05;1.23;;;19.30;69.00;;;;;;6121748;23;45320;-69
2022/11/12 08:20:06;;;;;;;1.42;1.08;;;19.30;69.00;;;;;;6121425;23;45274;-69
2022/11/12 08:22:33;;;;;;;2.00;1.08;;;19.30;69.10;;;;;;6120541;23;46246;-70
2022/11/12 08:24:59;;;;;;;1.30;0.98;;;19.40;69.20;;;;;;6120543;23;46171;-69
2022/11/12 08:27:26;;;;;;;1.50;1.00;;;19.30;69.10;;;;;;6121843;23;45290;-70
2022/11/12 08:29:53;;;;;;;0.88;0.85;;;19.40;69.20;;;;;;6122801;23;45523;-70
2022/11/12 08:32:22;;;;;;;1.23;1.10;;;19.40;69.20;;;;;;6121579;23;47204;-69
2022/11/12 08:34:48;;;;;;;1.15;0.75;;;19.40;70.20;;;;;;6121977;23;45243;-69
2022/11/12 08:37:15;;;;;;;1.58;1.30;;;19.40;69.20;;;;;;6120964;23;45229;-70
2022/11/12 08:39:42;;;;;;;1.35;1.10;;;19.40;69.10;;;;;;6121903;23;45520;-70
2022/11/12 08:42:09;;;;;;;1.25;0.90;;;19.40;69.10;;;;;;6121390;23;46277;-69
2022/11/12 08:44:36;;;;;;;1.38;0.98;;;19.40;69.20;;;;;;6120701;23;45359;-66
2022/11/12 08:47:03;;;;;;;14.50;2.50;;;19.40;68.70;;;;;;6119740;23;45255;-69
2022/11/12 08:49:31;;;;;;;4.60;1.67;;;19.40;69.80;;;;;;6119538;23;45427;-69
2022/11/12 08:51:57;;;;;;;6.55;1.40;;;19.40;69.80;;;;;;6121919;23;47576;-68
2022/11/12 08:54:24;;;;;;;6.47;1.17;;;19.40;70.10;;;;;;6120669;23;45275;-69
2022/11/12 08:56:51;;;;;;;2.13;1.10;;;19.40;69.70;;;;;;6123210;23;45343;-69
2022/11/12 08:59:18;;;;;;;3.70;1.10;;;19.40;69.80;;;;;;6122933;23;45371;-68
2022/11/12 09:01:45;;;;;;;1.67;1.10;;;19.40;69.60;;;;;;6121129;23;47526;-69
2022/11/12 09:04:12;;;;;;;1.73;1.10;;;19.30;69.60;;;;;;6121648;23;45234;-69
2022/11/12 09:06:40;;;;;;;1.40;1.08;;;19.40;69.50;;;;;;6121841;23;45230;-69
2022/11/12 09:09:06;;;;;;;1.60;0.90;;;19.40;69.50;;;;;;6120398;23;45444;-69
2022/11/12 09:11:33;;;;;;;1.40;1.00;;;19.40;69.40;;;;;;6121849;23;46660;-68
2022/11/12 09:14:00;;;;;;;3.92;1.00;;;19.40;69.20;;;;;;6120149;23;45748;-69
2022/11/12 09:16:27;;;;;;;2.15;1.35;;;19.40;69.50;;;;;;6119547;23;45348;-68
2022/11/12 09:18:54;;;;;;;2.50;0.82;;;19.40;69.40;;;;;;6121528;23;45505;-69
2022/11/12 09:21:23;;;;;;;1.77;1.10;;;19.40;69.40;;;;;;6121348;23;46407;-68
2022/11/12 09:23:51;;;;;;;1.67;0.93;;;19.40;69.40;;;;;;6122390;23;45428;-68
2022/11/12 09:26:18;;;;;;;1.25;0.90;;;19.40;69.30;;;;;;6120411;23;45286;-68
2022/11/12 09:28:45;;;;;;;1.40;0.90;;;19.50;69.20;;;;;;6122271;23;45409;-68
2022/11/12 09:31:12;;;;;;;2.03;1.05;;;19.50;69.30;;;;;;6120200;23;48223;-69
2022/11/12 09:33:39;;;;;;;1.63;1.15;;;19.50;69.20;;;;;;6121453;23;45203;-69
2022/11/12 09:36:06;;;;;;;1.20;0.85;;;19.50;69.10;;;;;;6121029;23;45266;-69
2022/11/12 09:38:34;;;;;;;2.08;0.85;;;19.50;69.10;;;;;;6121574;23;45464;-68
2022/11/12 09:41:20;;;;;;;1.23;1.00;;;19.50;68.90;;;;;;6121962;23;45301;-68
2022/11/12 09:43:50;;;;;;;1.02;0.90;;;19.50;68.80;;;;;;6121365;23;45294;-68
2022/11/12 09:46:29;;;;;;;1.40;1.08;;;19.50;68.90;;;;;;6120821;23;45311;-69
2022/11/12 09:49:02;;;;;;;1.60;1.00;;;19.50;68.70;;;;;;6122053;23;45365;-69
2022/11/12 09:51:33;;;;;;;1.63;1.05;;;19.50;68.70;;;;;;6119790;23;47077;-68
2022/11/12 09:54:06;;;;;;;2.17;1.08;;;19.50;68.20;;;;;;6122184;23;45191;-69
2022/11/12 09:56:34;;;;;;;1.73;1.03;;;19.50;68.50;;;;;;6121135;23;45443;-68
2022/11/12 09:59:01;;;;;;;2.55;1.20;;;19.50;68.70;;;;;;6121795;23;45348;-68
2022/11/12 10:01:40;;;;;;;1.60;1.10;;;19.50;68.80;;;;;;6119736;23;45217;-68
2022/11/12 10:04:23;;;;;;;1.20;0.95;;;19.50;68.80;;;;;;6120452;23;45438;-68
2022/11/12 10:06:57;;;;;;;1.42;1.00;;;19.50;68.20;;;;;;6120637;23;45335;-69
2022/11/12 10:09:30;;;;;;;1.60;1.02;;;19.50;67.80;;;;;;6122307;23;45326;-69
2022/11/12 10:17:51;;;;;;;1.67;1.05;;;19.50;67.10;;;;;;6121901;23;45499;-68
2022/11/12 10:20:24;;;;;;;1.65;1.08;;;19.50;66.90;;;;;;6121910;23;45367;-68
2022/11/12 10:23:07;;;;;;;2.05;1.00;;;19.50;66.60;;;;;;6123330;23;45357;-69
2022/11/12 10:25:35;;;;;;;1.77;1.15;;;19.50;66.00;;;;;;6122303;23;45386;-69
2022/11/12 10:28:14;;;;;;;1.05;0.90;;;19.50;66.00;;;;;;6122921;23;45330;-68
2022/11/12 10:30:43;;;;;;;1.02;0.80;;;19.60;66.10;;;;;;6122251;23;45186;-68
2022/11/12 10:33:14;;;;;;;1.00;0.90;;;19.50;66.20;;;;;;6122918;23;46299;-68
2022/11/12 10:35:41;;;;;;;1.80;1.20;;;19.50;66.30;;;;;;6122598;23;45247;-68
2022/11/12 10:38:14;;;;;;;1.10;0.93;;;19.50;66.30;;;;;;6122829;23;45264;-68
2022/11/12 10:40:41;;;;;;;1.10;0.90;;;19.50;67.00;;;;;;6122115;23;45350;-68
2022/11/12 10:43:22;;;;;;;1.20;1.00;;;19.50;67.10;;;;;;6121465;23;45443;-69
2022/11/12 10:45:50;;;;;;;1.35;1.10;;;19.50;67.50;;;;;;6120423;23;45196;-68
2022/11/12 10:48:23;;;;;;;1.30;0.85;;;19.60;67.90;;;;;;6121592;23;45218;-68
2022/11/12 10:50:50;;;;;;;1.75;0.93;;;19.60;68.00;;;;;;6122036;23;45363;-68
2022/11/12 10:53:32;;;;;;;0.95;0.90;;;19.50;67.70;;;;;;6122756;23;46561;-68
2022/11/12 10:56:00;;;;;;;1.63;1.05;;;19.60;67.90;;;;;;6120945;23;45679;-68
2022/11/12 10:58:28;;;;;;;1.02;0.82;;;19.60;68.00;;;;;;6122771;23;45307;-68
2022/11/12 11:01:01;;;;;;;2.92;1.17;;;19.60;68.00;;;;;;6121982;23;45234;-68
2022/11/12 11:03:30;;;;;;;1.10;0.82;;;19.60;68.20;;;;;;6122031;23;48060;-68
2022/11/12 11:06:01;;;;;;;1.48;0.90;;;19.60;68.40;;;;;;6121258;23;45289;-68
2022/11/12 11:08:36;;;;;;;1.85;1.10;;;19.60;68.50;;;;;;6122420;23;45387;-67
2022/11/12 11:11:23;;;;;;;3.92;1.13;;;19.60;68.70;;;;;;6121060;23;45434;-68
2022/11/12 11:13:52;;;;;;;1.13;0.75;;;19.70;70.70;;;;;;6138022;23;46599;-68
2022/11/12 11:16:21;;;;;;;2.38;0.90;;;19.70;70.90;;;;;;6154161;23;45512;-68
2022/11/12 11:18:51;;;;;;;1.58;0.77;;;19.70;71.00;;;;;;6151327;23;45375;-68
2022/11/12 11:21:31;;;;;;;3.78;0.90;;;19.70;71.00;;;;;;6150263;23;45452;-68
2022/11/12 11:24:10;;;;;;;2.92;1.00;;;19.70;70.90;;;;;;6151187;23;48518;-68
2022/11/12 11:26:49;;;;;;;5.20;0.90;;;19.70;71.20;;;;;;6150910;23;45237;-69
2022/11/12 11:29:36;;;;;;;1.55;0.90;;;19.70;70.80;;;;;;6151621;23;45369;-69
2022/11/12 11:32:15;;;;;;;3.53;0.98;;;19.70;70.90;;;;;;6151438;23;45177;-68
2022/11/12 11:34:48;;;;;;;1.30;0.90;;;19.70;70.70;;;;;;6151312;23;47988;-68
2022/11/12 11:37:25;;;;;;;1.20;0.80;;;19.70;71.00;;;;;;6151941;23;45281;-68
2022/11/12 11:40:01;;;;;;;1.63;0.80;;;19.70;71.10;;;;;;6152300;23;45288;-68
2022/11/12 11:42:46;;;;;;;0.88;0.73;;;19.70;71.20;;;;;;6152945;23;45285;-68
2022/11/12 11:45:22;;;;;;;1.92;0.90;;;19.70;70.90;;;;;;6150994;23;47064;-68
2022/11/12 11:47:55;;;;;;;1.30;0.93;;;19.70;71.20;;;;;;6152900;23;45373;-68
2022/11/12 11:50:27;;;;;;;3.10;1.15;;;19.60;70.80;;;;;;6151713;23;45418;-68
2022/11/12 11:53:10;;;;;;;1.60;1.02;;;19.70;70.70;;;;;;6153015;23;45436;-68
2022/11/12 11:55:48;;;;;;;1.10;0.90;;;19.70;70.90;;;;;;6150684;23;45292;-68
2022/11/12 11:58:55;;;;;;;1.20;1.02;;;19.70;71.20;;;;;;6151958;23;45217;-68
2022/11/12 12:01:30;;;;;;;0.95;0.70;;;19.70;71.20;;;;;;6081484;23;45398;-69
2022/11/12 12:04:24;;;;;;;1.48;0.77;;;19.70;71.40;;;;;;6151341;23;45335;-68
2022/11/12 12:07:03;;;;;;;0.80;0.70;;;19.70;71.30;;;;;;6150581;23;45226;-68
2022/11/12 12:09:37;;;;;;;1.75;0.88;;;19.70;71.10;;;;;;6149925;23;45297;-68
2022/11/12 12:12:11;;;;;;;1.30;0.80;;;19.70;71.20;;;;;;6150067;23;45289;-69
2022/11/12 12:14:51;;;;;;;0.95;0.70;;;19.70;71.50;;;;;;6149722;23;45244;-68
2022/11/12 12:17:34;;;;;;;1.60;1.00;;;19.70;71.60;;;;;;6150175;23;46281;-68
2022/11/12 12:20:08;;;;;;;0.68;0.60;;;19.60;71.60;;;;;;6150718;23;45210;-69
2022/11/12 12:22:40;;;;;;;0.82;0.80;;;19.70;71.90;;;;;;6149937;23;45306;-68
2022/11/12 12:25:13;;;;;;;0.90;0.80;;;19.70;71.90;;;;;;6150819;23;45225;-69
2022/11/12 12:27:50;;;;;;;1.08;0.75;;;19.70;71.90;;;;;;6150358;23;48064;-68
2022/11/12 12:30:20;;;;;;;1.95;0.93;;;19.70;72.10;;;;;;6150243;23;45730;-68
2022/11/12 12:32:55;;;;;;;1.67;0.70;;;19.70;72.10;;;;;;6150840;23;45241;-69
2022/11/12 12:35:26;;;;;;;1.50;1.05;;;19.70;72.60;;;;;;6150046;23;45435;-69
2022/11/12 12:38:01;;;;;;;0.90;0.70;;;19.70;72.60;;;;;;6151821;23;45295;-69
2022/11/12 12:40:34;;;;;;;2.33;1.00;;;19.70;72.50;;;;;;6151396;23;45269;-69
2022/11/12 12:43:07;;;;;;;1.35;0.70;;;19.60;72.40;;;;;;6152217;23;45218;-69
2022/11/12 12:45:41;;;;;;;1.35;0.73;;;19.70;72.40;;;;;;6151132;23;45382;-68
2022/11/12 12:48:13;;;;;;;1.25;0.70;;;19.70;72.40;;;;;;6152218;23;47659;-68
2022/11/12 12:50:42;;;;;;;0.70;0.50;;;19.70;72.60;;;;;;6151407;23;45379;-66
2022/11/12 12:53:18;;;;;;;1.73;0.75;;;19.60;72.50;;;;;;6152551;23;45179;-66
2022/11/12 12:55:46;;;;;;;5.38;0.80;;;19.70;72.60;;;;;;6151459;23;45415;-68
2022/11/12 12:58:26;;;;;;;1.30;0.90;;;19.60;72.00;;;;;;6151386;23;46338;-68
2022/11/12 13:00:57;;;;;;;2.40;0.80;;;19.60;71.60;;;;;;6152320;23;45192;-69
2022/11/12 13:03:55;;;;;;;1.33;0.65;;;19.70;71.60;;;;;;6151100;23;45234;-68
2022/11/12 13:06:27;;;;;;;1.05;0.88;;;19.70;71.40;;;;;;6151430;23;45369;-68
2022/11/12 13:08:59;;;;;;;1.10;0.82;;;19.70;71.30;;;;;;6150813;23;46577;-68
2022/11/12 13:14:51;;;;;;;1.05;0.80;;;19.80;71.30;;;;;;6149227;23;45494;-67
2022/11/12 13:17:47;;;;;;;1.40;0.80;;;19.80;71.30;;;;;;6151271;23;45344;-68
2022/11/12 13:20:39;;;;;;;1.25;0.80;;;19.80;71.30;;;;;;6151675;23;47356;-68
2022/11/12 13:23:11;;;;;;;1.98;0.70;;;19.80;71.30;;;;;;6149545;23;45311;-69
2022/11/12 13:25:39;;;;;;;0.63;0.60;;;19.80;71.30;;;;;;6151206;23;45228;-68
2022/11/12 13:28:08;;;;;;;1.05;0.57;;;19.80;71.20;;;;;;6151477;23;45305;-68
2022/11/12 13:30:57;;;;;;;1.48;0.90;;;19.80;71.30;;;;;;6151549;23;45300;-68
2022/11/12 13:33:30;;;;;;;1.48;0.70;;;19.80;71.30;;;;;;6134119;23;45583;-69
2022/11/12 13:36:32;;;;;;;2.35;0.82;;;19.80;71.40;;;;;;6150767;23;45397;-68
2022/11/12 13:39:14;;;;;;;0.95;0.70;;;19.80;71.30;;;;;;6143545;23;45351;-69
2022/11/12 13:44:26;;;;;;;1.25;0.70;;;19.80;71.30;;;;;;6151834;23;45171;-69
2022/11/12 13:46:54;;;;;;;0.60;0.60;;;19.80;71.30;;;;;;6151039;23;45277;-68
2022/11/12 13:49:22;;;;;;;0.80;0.70;;;19.80;71.40;;;;;;6152020;23;45397;-69
2022/11/12 13:51:52;;;;;;;0.75;0.75;;;19.80;71.30;;;;;;6149894;23;46974;-68
2022/11/12 13:54:29;;;;;;;1.23;0.80;;;19.80;71.40;;;;;;6151407;23;45834;-68
2022/11/12 13:56:56;;;;;;;0.95;0.60;;;19.80;71.40;;;;;;6152329;23;45236;-68
2022/11/12 13:59:25;;;;;;;0.73;0.50;;;19.80;71.50;;;;;;6151063;23;45213;-68
2022/11/12 14:01:51;;;;;;;1.00;0.70;;;19.80;71.50;;;;;;6151147;23;47457;-68
2022/11/12 14:04:20;;;;;;;0.73;0.60;;;19.80;71.50;;;;;;6149865;23;45607;-69
2022/11/12 14:06:50;;;;;;;1.33;0.73;;;19.80;71.60;;;;;;6149833;23;45306;-69
2022/11/12 14:09:35;;;;;;;2.60;0.70;;;19.80;71.50;;;;;;6150777;23;45433;-67
2022/11/12 14:12:18;;;;;;;1.20;0.70;;;19.80;71.50;;;;;;6149640;23;47220;-69
2022/11/12 14:15:03;;;;;;;5.95;1.13;;;19.80;72.60;;;;;;6149683;23;45723;-70
2022/11/12 14:17:39;;;;;;;3.05;0.65;;;19.80;73.90;;;;;;6149832;23;45208;-70
2022/11/12 14:20:23;;;;;;;2.97;0.80;;;19.80;73.70;;;;;;6151252;23;45345;-70
2022/11/12 14:22:50;;;;;;;3.47;0.82;;;19.80;73.90;;;;;;6149343;23;46379;-70
2022/11/12 14:25:21;;;;;;;1.65;0.88;;;19.80;74.10;;;;;;6149203;23;45369;-70
2022/11/12 14:31:54;;;;;;;2.25;1.05;;;19.80;74.80;;;;;;6154165;23;45213;-70
2022/11/12 14:34:26;;;;;;;4.25;0.60;;;19.80;75.10;;;;;;6150568;23;46587;-70
2022/11/12 14:36:54;;;;;;;1.55;0.90;;;19.70;75.40;;;;;;6150253;23;45199;-70
2022/11/12 14:39:22;;;;;;;1.88;1.10;;;19.70;76.80;;;;;;6150124;23;45390;-70